Nearby METAR Reports

 

KORH - Worcester, Massachusetts, USA
Distance from station: NW 4mi, 7km
Updated: Sun, 20-May-2018 7:31am EDT
Overcast
Overcast
 Wind from SW
Wind: SW 15 mph , 24 km/h
Temperature: 64°F , 18°C
Dew Point: 63°F , 17°C
Humidity: 94%
Barometer: 29.92 inHg , 1013.2 hPa
Clouds: Overcast
Visibility: 10 miles , 16 km
Cloud details: Overcast 500 ft
2018/05/20 11:31 KORH 201131Z 23013KT 10SM OVC005 18/17 A2992 RMK AO2 T01780172
KBOS - Boston, Massachusetts, USA
Distance from station: ENE 42mi, 68km
Updated: Sun, 20-May-2018 6:54am EDT
Mostly cloudy
Mostly cloudy
 Wind from SSW
Wind: SSW 14 mph , 22 km/h
Temperature: 66°F , 19°C
Dew Point: 64°F , 18°C
Humidity: 94%
Barometer: 29.89 inHg , 1012.2 hPa
Clouds: Mostly cloudy
Visibility: 10 miles , 16 km
Cloud details: Mostly cloudy 1200 ft
Mostly cloudy 25000 ft
2018/05/20 10:54 KBOS 201054Z 21012KT 10SM BKN012 BKN250 19/18 A2989 RMK AO2 SLP121 T01890178
 
KCQX - Chatham, Massachusetts, USA
Distance from station: SE 102mi, 164km
Updated: Sun, 20-May-2018 7:27am EDT
Mist, Overcast
Mist, Overcast
 Wind from SW
Wind: SW 14 mph , 22 km/h, Gust: 21 mph , 33 km/h
Temperature: 59°F , 15°C
Dew Point: 59°F , 15°C
Humidity: 100%
Barometer: 30.00 inHg , 1015.9 hPa
Summary: Mist
Clouds: Overcast
Visibility: 1 3/4 miles , 2.8 km
Cloud details: Overcast 200 ft
2018/05/20 11:27 KCQX 201127Z AUTO 23012G18KT 1 3/4SM BR OVC002 15/15 A3000 RMK AO2 RAE19 P0000 T01500150 TSNO
KMVY - Marthas Vineyard, Massachusetts, USA
Distance from station: SE 84mi, 135km
Updated: Sun, 20-May-2018 7:24am EDT
Mist, Overcast
Mist, Overcast
 Wind from SW
Wind: SW 17 mph , 28 km/h, Gust: 26 mph , 43 km/h
Temperature: 59°F , 15°C
Dew Point: 59°F , 15°C
Humidity: 100%
Barometer: 30.00 inHg , 1015.9 hPa
Summary: Mist
Clouds: Overcast
Visibility: 1/4 mile , 0.4 km
Cloud details: Overcast 200 ft
2018/05/20 11:24 KMVY 201124Z 22015G23KT 1/4SM R24/3500V5500FT BR OVC002 15/15 A3000 RMK AO2 SFC VIS 3/4 T01500150
 
KPVC - Provincetown, Massachusetts, USA
Distance from station: NNW 85mi, 136km
Updated: Sun, 20-May-2018 7:18am EDT
Fog, Overcast
Fog, Overcast
 Wind from SSW
Wind: SSW 18 mph , 30 km/h
Temperature: 57°F , 14°C
Dew Point: 57°F , 14°C
Humidity: 100%
Barometer: 29.94 inHg , 1013.9 hPa
Summary: Fog
Clouds: Overcast
Visibility: 1/2 mile , 0.8 km
Cloud details: Overcast 300 ft
2018/05/20 11:18 KPVC 201118Z AUTO 21016KT 1/2SM FG OVC003 14/14 A2994 RMK AO2
KAQW - Savoy, Massachusetts, USA
Distance from station: NNW 66mi, 106km
Updated: Sun, 20-May-2018 6:52am EDT
Overcast
Overcast
 Wind from calm
Wind: Calm
Temperature: 64°F , 18°C
Dew Point: 61°F , 16°C
Humidity: 88%
Barometer: 29.88 inHg , 1011.9 hPa
Clouds: Overcast
Visibility: 10 miles , 16 km
Cloud details: Overcast 3400 ft
2018/05/20 10:52 KAQW 201052Z AUTO 00000KT 10SM OVC034 18/16 A2988 RMK AO2 SLP118 T01780161
 
KIZG - Fryeburg, Maine, USA
Distance from station: NNE 133mi, 214km
Updated: Sun, 20-May-2018 6:54am EDT
Mostly cloudy
Mostly cloudy
 Wind from S
Wind: S 6 mph , 9 km/h
Temperature: 55°F , 13°C
Dew Point: 54°F , 12°C
Humidity: 94%
Barometer: 29.82 inHg , 1009.8 hPa
Clouds: Mostly cloudy
Visibility: 10 miles , 16 km
Cloud details: Mostly cloudy 3400 ft
2018/05/20 10:54 KIZG 201054Z AUTO 17005KT 10SM BKN034 13/12 A2982 RMK AO2 SLP100 T01330122
KMWN - Mt Washington, New Hampshire, USA
Distance from station: NNE 146mi, 234km
Updated: Sun, 20-May-2018 6:53am EDT
Fog, Overcast
Fog, Overcast
 Wind from W
Wind: W 55 mph , 89 km/h, Gust: 68 mph , 109 km/h
Temperature: 48°F , 9°C
Wind Chill: 37°F , 3°C
Dew Point: 48°F , 9°C
Humidity: 100%
Summary: Fog
Clouds: Overcast
Visibility: 0 miles , 0 km
Cloud details: Overcast 0 ft
2018/05/20 10:53 KMWN 201053Z 27048G59KT 0SM FG VV000 09/09 RMK SHRAE
 
KBML - Berlin, New Hampshire, USA
Distance from station: NNE 160mi, 257km
Updated: Sun, 20-May-2018 6:52am EDT
Mostly cloudy
Mostly cloudy
 
Temperature: 63°F , 17°C
Dew Point: 61°F , 16°C
Humidity: 94%
Barometer: 29.80 inHg , 1009.1 hPa
Clouds: Mostly cloudy
Visibility: 10 miles , 16 km
Cloud details: Mostly cloudy 2200 ft
Mostly cloudy 3200 ft
Mostly cloudy 4900 ft
2018/05/20 10:52 KBML 201052Z AUTO 10SM BKN022 BKN032 BKN049 17/16 A2980 RMK AO2 RAE22 SLP094 P0001 T01720156